Time;durP1;ratioP1;P1;durP2;ratioP2;P2;SDS_P1;SDS_P2;PMS_P1;PMS_P2;Temp;Humidity;BMP_temperature;BMP_pressure;BME280_temperature;BME280_humidity;BME280_pressure;Samples;Min_cycle;Max_cycle;Signal;HPM_P1;HPM_P2
2021/04/17 00:01:33;;;;;;;2.03;1.20;;;;;;;5.89;60.83;101533.06;4994399;28;20046;-67
2021/04/17 00:04:02;;;;;;;2.50;1.02;;;;;;;5.78;60.97;101533.34;4982143;28;20145;-65
2021/04/17 00:06:30;;;;;;;2.72;1.50;;;;;;;5.84;61.14;101527.09;4989561;28;20054;-65
2021/04/17 00:08:57;;;;;;;6.10;1.10;;;;;;;5.90;61.15;101521.75;4956988;28;20197;-65
2021/04/17 00:11:24;;;;;;;3.85;1.40;;;;;;;5.79;61.02;101523.75;4988709;28;20062;-67
2021/04/17 00:13:51;;;;;;;3.42;0.90;;;;;;;5.76;61.05;101509.03;4988826;28;20060;-65
2021/04/17 00:16:19;;;;;;;2.72;1.13;;;;;;;5.75;61.16;101509.91;4989801;28;20060;-67
2021/04/17 00:18:46;;;;;;;7.22;1.50;;;;;;;5.66;62.07;101509.28;4974323;28;20141;-65
2021/04/17 00:21:12;;;;;;;2.80;1.20;;;;;;;5.77;61.31;101509.88;4992959;28;20137;-66
2021/04/17 00:23:40;;;;;;;4.22;1.80;;;;;;;5.82;61.52;101505.41;4993053;28;20054;-64
2021/04/17 00:26:07;;;;;;;4.82;1.25;;;;;;;5.78;61.35;101507.22;4975672;28;20612;-67
2021/04/17 00:28:34;;;;;;;5.30;1.27;;;;;;;5.68;61.79;101505.75;4992058;28;20085;-65
2021/04/17 00:31:02;;;;;;;3.53;1.52;;;;;;;5.74;61.38;101508.19;4958500;28;20548;-66
2021/04/17 00:33:29;;;;;;;2.65;1.23;;;;;;;5.71;61.80;101504.78;4974223;28;20058;-65
2021/04/17 00:35:55;;;;;;;2.92;1.30;;;;;;;5.75;62.08;101501.19;4994675;28;20057;-66
2021/04/17 00:38:22;;;;;;;4.20;1.30;;;;;;;5.74;61.39;101500.34;4976926;28;20144;-67
2021/04/17 00:40:49;;;;;;;2.03;1.05;;;;;;;5.84;61.42;101487.91;4988059;28;20051;-67
2021/04/17 00:43:15;;;;;;;4.47;1.10;;;;;;;5.89;61.57;101496.47;4987785;28;20145;-65
2021/04/17 00:45:42;;;;;;;4.45;1.30;;;;;;;5.91;61.74;101491.25;4974229;28;20046;-65
2021/04/17 00:48:09;;;;;;;3.90;1.10;;;;;;;5.81;61.66;101490.63;4973137;28;20065;-65
2021/04/17 00:50:35;;;;;;;4.22;1.30;;;;;;;5.72;62.27;101493.44;4987914;28;20450;-65
2021/04/17 00:53:03;;;;;;;5.90;1.73;;;;;;;5.90;62.27;101493.00;4972208;28;20057;-67
2021/04/17 00:55:30;;;;;;;4.00;1.45;;;;;;;5.86;62.38;101488.75;4988848;28;20051;-64
2021/04/17 00:57:57;;;;;;;2.10;0.90;;;;;;;5.99;61.98;101489.28;4987951;28;20043;-66
2021/04/17 01:00:24;;;;;;;5.18;1.38;;;;;;;5.90;62.29;101489.50;4993603;28;20054;-66
2021/04/17 01:02:54;;;;;;;3.50;1.20;;;;;;;5.89;62.07;101486.03;4991936;28;20177;-66
2021/04/17 01:05:22;;;;;;;1.80;1.13;;;;;;;6.00;62.23;101485.81;4991747;28;20137;-66
2021/04/17 01:07:50;;;;;;;3.20;1.30;;;;;;;6.00;61.88;101486.66;4991339;28;20060;-66
2021/04/17 01:10:37;;;;;;;5.63;1.42;;;;;;;5.54;62.97;101497.38;4987009;28;20062;-63
2021/04/17 01:17:06;;;;;;;4.15;1.27;;;;;;;5.81;62.80;101495.84;4981346;28;20061;-66
2021/04/17 01:19:50;;;;;;;3.28;1.77;;;;;;;5.80;62.85;101496.72;4970895;28;20105;-66
2021/04/17 01:22:20;;;;;;;2.75;1.25;;;;;;;5.88;62.94;101493.91;4970720;28;20133;-68
2021/04/17 01:24:55;;;;;;;4.95;1.52;;;;;;;5.75;64.93;101496.84;4972820;28;20684;-65
2021/04/17 01:27:22;;;;;;;3.53;1.42;;;;;;;5.71;65.34;101495.19;4990866;28;20057;-68
2021/04/17 01:29:49;;;;;;;5.22;1.80;;;;;;;5.59;65.92;101480.69;4972200;28;20153;-67
2021/04/17 01:32:16;;;;;;;4.75;1.73;;;;;;;5.50;68.87;101483.53;4985641;28;20145;-66
2021/04/17 01:34:43;;;;;;;7.22;1.65;;;;;;;5.45;68.95;101492.34;4969874;28;20077;-67
2021/04/17 01:37:10;;;;;;;5.57;1.70;;;;;;;5.44;69.57;101496.72;4985082;28;20068;-65
2021/04/17 01:39:38;;;;;;;5.80;1.35;;;;;;;5.30;69.41;101488.34;4987198;28;20052;-70
2021/04/17 01:42:07;;;;;;;4.57;1.60;;;;;;;5.25;69.90;101485.00;4986279;28;20142;-66
2021/04/17 01:44:39;;;;;;;3.65;1.40;;;;;;;5.33;70.23;101477.84;4985159;28;20054;-66
2021/04/17 01:47:08;;;;;;;4.45;1.05;;;;;;;5.41;69.75;101475.06;4956698;28;20100;-67
2021/04/17 01:49:40;;;;;;;2.50;1.60;;;;;;;5.27;69.99;101472.78;4969196;28;20133;-67
2021/04/17 01:52:08;;;;;;;2.13;0.98;;;;;;;5.38;69.94;101476.00;4966688;28;20050;-67
2021/04/17 01:54:45;;;;;;;5.13;1.50;;;;;;;5.48;68.92;101464.41;4994543;28;20141;-65
2021/04/17 01:57:15;;;;;;;2.90;1.10;;;;;;;5.37;69.42;101462.97;4995621;28;20097;-68
2021/04/17 01:59:41;;;;;;;2.88;0.95;;;;;;;5.41;69.61;101467.22;4969830;28;20046;-66
2021/04/17 02:02:08;;;;;;;3.72;1.05;;;;;;;5.27;69.82;101467.56;4984620;28;20129;-66
2021/04/17 02:04:35;;;;;;;2.17;1.20;;;;;;;5.23;69.31;101466.78;4987511;28;20046;-64
2021/04/17 02:07:03;;;;;;;4.22;1.02;;;;;;;5.14;69.65;101458.31;4972277;28;20058;-66
2021/04/17 02:09:30;;;;;;;3.88;1.30;;;;;;;5.27;70.20;101455.38;4986765;28;20133;-65
2021/04/17 02:11:56;;;;;;;7.68;1.90;;;;;;;5.35;70.74;101455.16;4986871;28;20417;-66
2021/04/17 02:14:23;;;;;;;3.67;0.90;;;;;;;5.28;70.15;101448.38;4970251;28;20089;-66
2021/04/17 02:16:55;;;;;;;4.95;1.23;;;;;;;5.45;69.64;101442.72;4969494;28;20062;-65
2021/04/17 02:19:27;;;;;;;3.40;1.35;;;;;;;5.38;69.27;101449.88;4968201;28;20066;-67
2021/04/17 02:21:56;;;;;;;3.80;1.00;;;;;;;5.40;70.12;101449.81;4985017;28;20069;-66
2021/04/17 02:24:26;;;;;;;4.18;1.63;;;;;;;5.42;69.69;101451.53;4986179;28;20546;-67
2021/04/17 02:26:53;;;;;;;2.33;1.13;;;;;;;5.61;69.65;101445.84;4968293;28;20062;-66
2021/04/17 02:29:20;;;;;;;5.47;1.23;;;;;;;5.51;69.78;101440.84;4952492;28;20050;-66
2021/04/17 02:31:47;;;;;;;5.35;1.33;;;;;;;5.42;70.07;101442.84;4984579;28;20073;-65
2021/04/17 02:34:15;;;;;;;3.40;1.30;;;;;;;5.34;70.11;101438.63;4986067;28;20539;-65
2021/04/17 02:36:42;;;;;;;5.32;1.50;;;;;;;5.40;69.19;101445.47;4952727;28;20049;-65
2021/04/17 02:39:09;;;;;;;2.28;1.40;;;;;;;5.41;69.18;101444.59;4984744;28;20050;-65
2021/04/17 02:41:36;;;;;;;3.08;1.13;;;;;;;5.41;69.44;101441.13;4968762;28;20091;-66
2021/04/17 02:44:03;;;;;;;3.80;1.25;;;;;;;5.66;69.07;101442.22;4986381;28;20476;-65
2021/04/17 02:46:31;;;;;;;4.57;1.67;;;;;;;5.66;68.83;101436.13;5012753;23;20045;-83
2021/04/17 02:48:58;;;;;;;2.08;1.38;;;;;;;5.65;68.79;101434.41;5021756;28;20685;-81
2021/04/17 02:51:25;;;;;;;2.95;1.45;;;;;;;5.65;68.86;101437.03;4994081;28;20045;-79
2021/04/17 02:53:52;;;;;;;5.90;1.33;;;;;;;5.63;68.69;101428.34;5025612;28;20034;-80
2021/04/17 02:56:20;;;;;;;3.97;1.58;;;;;;;5.58;68.61;101437.19;5002758;28;20050;-82
2021/04/17 02:58:46;;;;;;;6.00;1.58;;;;;;;5.69;68.09;101423.84;5016002;28;20100;-80
2021/04/17 03:01:13;;;;;;;4.10;1.50;;;;;;;5.73;67.77;101424.63;5020097;28;20046;-79
2021/04/17 03:03:40;;;;;;;4.03;1.75;;;;;;;5.70;67.14;101416.88;4982477;28;20106;-81
2021/04/17 03:06:07;;;;;;;6.28;1.55;;;;;;;5.67;66.95;101420.41;5015777;28;20093;-80
2021/04/17 03:08:34;;;;;;;2.88;1.40;;;;;;;5.57;67.68;101419.78;4989850;28;20127;-81
2021/04/17 03:11:02;;;;;;;4.53;1.52;;;;;;;5.66;66.53;101423.06;5006204;28;20042;-78
2021/04/17 03:13:52;;;;;;;4.28;1.30;;;;;;;5.70;66.13;101414.25;4999169;28;20058;-79
2021/04/17 03:17:08;;;;;;;2.33;1.40;;;;;;;5.75;66.05;101405.38;4953087;28;20047;-79
2021/04/17 03:24:49;;;;;;;6.60;1.60;;;;;;;5.73;65.16;101412.44;5000775;28;20156;-77
2021/04/17 03:28:01;;;;;;;5.93;1.85;;;;;;;5.91;65.05;101421.53;5000214;28;20038;-79
2021/04/17 03:35:41;;;;;;;6.85;1.67;;;;;;;5.79;64.29;101420.09;5001040;28;20096;-81
2021/04/17 03:40:03;;;;;;;6.95;1.10;;;;;;;5.77;64.58;101415.81;4984841;28;20607;-78
2021/04/17 03:44:12;;;;;;;6.18;1.85;;;;;;;5.83;64.21;101419.13;4972615;28;20057;-79
2021/04/17 03:47:45;;;;;;;4.85;1.27;;;;;;;5.87;64.07;101417.28;4910439;29;20056;-81
2021/04/17 03:51:15;;;;;;;6.20;1.85;;;;;;;5.65;63.84;101413.53;4916277;28;20126;-78
2021/04/17 03:58:40;;;;;;;5.50;1.17;;;;;;;5.40;65.45;101421.97;4918032;29;20059;-77
2021/04/17 04:02:23;;;;;;;4.63;1.25;;;;;;;5.45;65.20;101420.13;4925463;29;20053;-79
2021/04/17 04:05:16;;;;;;;4.45;1.38;;;;;;;5.57;65.13;101416.31;4937819;29;20040;-80
2021/04/17 04:12:26;;;;;;;3.88;1.85;;;;;;;5.75;64.33;101413.22;4949357;28;20099;-80
2021/04/17 04:15:52;;;;;;;6.25;1.20;;;;;;;5.63;65.10;101417.91;4967178;28;20054;-81
2021/04/17 04:20:07;;;;;;;2.47;1.27;;;;;;;5.52;64.24;101423.41;4991678;28;20162;-80
2021/04/17 04:23:13;;;;;;;3.45;1.42;;;;;;;5.56;64.67;101418.06;4981474;28;20203;-80
2021/04/17 04:26:56;;;;;;;5.38;1.42;;;;;;;5.61;64.81;101417.97;4982680;28;20132;-80
2021/04/17 04:30:22;;;;;;;6.65;1.33;;;;;;;5.36;65.43;101430.78;5012986;28;20065;-81
2021/04/17 04:32:53;;;;;;;5.32;1.73;;;;;;;5.34;65.71;101432.56;5034391;28;20322;-83
2021/04/17 04:35:39;;;;;;;3.20;1.20;;;;;;;5.53;65.14;101435.56;5009232;28;20113;-80
2021/04/17 04:38:18;;;;;;;4.18;1.05;;;;;;;5.45;64.36;101425.34;5020274;28;20504;-80
2021/04/17 04:40:45;;;;;;;1.67;1.00;;;;;;;5.46;64.73;101424.44;5022885;28;20258;-80
2021/04/17 04:43:12;;;;;;;4.60;1.50;;;;;;;5.24;64.75;101425.84;4992147;28;20066;-80
2021/04/17 04:45:40;;;;;;;4.03;1.45;;;;;;;5.16;64.95;101435.63;4999627;28;20069;-79
2021/04/17 04:48:09;;;;;;;3.78;1.13;;;;;;;5.22;65.43;101425.03;4995341;28;20030;-80
2021/04/17 04:50:37;;;;;;;5.22;1.10;;;;;;;5.18;65.12;101421.66;5011035;28;20053;-79
2021/04/17 04:53:04;;;;;;;3.85;1.38;;;;;;;5.14;65.81;101424.38;5020894;28;20069;-82
2021/04/17 04:55:31;;;;;;;4.35;1.65;;;;;;;5.15;66.41;101433.91;5000963;28;20037;-80
2021/04/17 04:57:57;;;;;;;4.15;1.42;;;;;;;5.22;65.74;101425.03;4996048;28;20572;-81
2021/04/17 05:00:25;;;;;;;4.63;1.52;;;;;;;5.15;66.88;101424.31;5011464;28;20062;-80
2021/04/17 05:02:52;;;;;;;6.32;1.38;;;;;;;5.06;65.72;101438.44;4992425;28;20161;-79
2021/04/17 05:05:19;;;;;;;5.45;1.40;;;;;;;5.25;65.50;101424.97;5005466;28;20050;-79
2021/04/17 05:07:46;;;;;;;4.55;1.70;;;;;;;5.30;65.99;101421.34;4987782;28;20125;-79
2021/04/17 05:10:13;;;;;;;4.32;1.60;;;;;;;5.42;65.44;101416.72;5013680;28;20042;-80
2021/04/17 05:12:40;;;;;;;2.75;1.08;;;;;;;5.49;65.18;101418.25;5010198;28;20062;-81
2021/04/17 05:15:08;;;;;;;7.30;1.73;;;;;;;5.36;65.77;101420.34;5009838;28;20091;-81
2021/04/17 05:17:34;;;;;;;5.38;1.92;;;;;;;5.42;65.22;101420.19;4997571;28;20218;-80
2021/04/17 05:20:01;;;;;;;3.70;1.15;;;;;;;5.26;65.32;101418.84;4995393;28;20109;-79
2021/04/17 05:22:28;;;;;;;10.50;1.70;;;;;;;5.34;65.59;101419.50;5013722;28;20040;-80
2021/04/17 05:24:55;;;;;;;3.50;1.25;;;;;;;5.29;65.98;101418.78;5003095;28;20102;-79
2021/04/17 05:27:22;;;;;;;3.97;1.60;;;;;;;5.25;66.13;101414.50;5006895;28;20061;-78
2021/04/17 05:29:48;;;;;;;6.72;1.30;;;;;;;5.17;66.06;101416.44;5016530;28;20046;-81
2021/04/17 05:32:15;;;;;;;4.63;1.15;;;;;;;5.11;67.16;101425.28;5007678;28;20372;-81
2021/04/17 05:34:43;;;;;;;3.53;1.35;;;;;;;4.94;67.72;101417.84;5006270;28;20073;-83
2021/04/17 05:37:11;;;;;;;7.70;1.40;;;;;;;5.07;67.53;101421.03;5002449;28;20045;-81
2021/04/17 05:39:58;;;;;;;5.20;1.52;;;;;;;5.03;67.90;101416.78;5010651;28;20030;-81
2021/04/17 05:42:32;;;;;;;10.52;1.52;;;;;;;5.17;66.30;101419.91;5005349;28;20068;-80
2021/04/17 05:45:45;;;;;;;2.63;1.48;;;;;;;5.02;67.43;101415.06;5002145;28;20042;-79
2021/04/17 05:56:08;;;;;;;4.78;1.20;;;;;;;5.12;66.72;101428.75;5038320;28;20027;-78
2021/04/17 05:59:18;;;;;;;4.65;1.40;;;;;;;5.19;67.02;101427.72;5002654;28;20085;-79
2021/04/17 06:10:15;;;;;;;4.80;1.45;;;;;;;5.41;66.02;101426.31;5015476;28;20057;-83
2021/04/17 06:14:16;;;;;;;7.40;1.50;;;;;;;5.25;67.41;101433.63;4985330;28;20052;-83
2021/04/17 06:17:08;;;;;;;3.72;1.33;;;;;;;5.10;68.05;101428.78;5003094;28;20050;-79
2021/04/17 06:24:43;;;;;;;8.07;1.88;;;;;;;5.27;67.42;101433.63;5020055;28;20752;-80
2021/04/17 06:28:41;;;;;;;9.73;1.83;;;;;;;5.33;67.50;101429.09;5012426;28;20410;-81
2021/04/17 06:31:26;;;;;;;28.70;5.13;;;;;;;5.18;68.21;101423.38;5018514;28;20387;-80
2021/04/17 06:39:53;;;;;;;5.07;1.25;;;;;;;5.31;67.89;101430.00;4976218;28;20073;-82
2021/04/17 06:47:05;;;;;;;6.75;1.70;;;;;;;5.67;67.03;101433.47;4905581;29;20054;-82
2021/04/17 06:49:33;;;;;;;11.90;2.28;;;;;;;5.59;67.81;101432.81;4960683;23;21301;-77
2021/04/17 06:52:01;;;;;;;9.35;2.30;;;;;;;5.78;67.27;101443.66;4984998;28;20137;-80
2021/04/17 06:54:27;;;;;;;8.15;2.10;;;;;;;5.71;67.06;101444.69;5007475;28;20058;-77
2021/04/17 06:56:54;;;;;;;6.00;1.65;;;;;;;5.62;67.86;101437.94;4999623;28;20418;-75
2021/04/17 06:59:21;;;;;;;7.28;1.80;;;;;;;5.64;68.07;101441.41;4990474;28;20408;-73
2021/04/17 07:01:48;;;;;;;9.60;1.65;;;;;;;5.76;67.33;101434.97;4996863;28;20133;-73
2021/04/17 07:04:15;;;;;;;6.38;1.77;;;;;;;5.65;68.46;101432.66;5007312;28;20050;-73
2021/04/17 07:06:42;;;;;;;8.52;1.52;;;;;;;5.57;68.07;101432.84;5006283;28;20049;-75
2021/04/17 07:09:09;;;;;;;3.80;1.42;;;;;;;5.91;67.93;101428.53;4995218;28;20109;-74
2021/04/17 07:11:35;;;;;;;6.47;1.70;;;;;;;5.93;68.02;101422.38;5006849;28;20050;-74
2021/04/17 07:14:11;;;;;;;9.07;1.73;;;;;;;6.16;66.63;101428.72;4992608;28;20062;-73
2021/04/17 07:16:59;;;;;;;3.53;1.33;;;;;;;6.26;65.88;101440.63;5008922;28;20045;-75
2021/04/17 07:19:55;;;;;;;6.88;1.65;;;;;;;6.17;66.47;101433.94;5006179;28;20064;-73
2021/04/17 07:22:27;;;;;;;5.07;1.50;;;;;;;6.21;66.87;101438.16;4996945;28;20469;-75
2021/04/17 07:24:55;;;;;;;6.72;1.80;;;;;;;6.12;66.86;101433.16;5007067;28;20480;-74
2021/04/17 07:27:48;;;;;;;8.10;2.63;;;;;;;6.23;67.10;101430.28;5004656;28;20050;-73
2021/04/17 07:30:14;;;;;;;11.38;2.10;;;;;;;6.16;66.92;101433.94;5013897;28;20058;-73
2021/04/17 07:32:45;;;;;;;8.40;1.88;;;;;;;6.30;66.96;101431.81;5013483;28;20109;-74
2021/04/17 07:35:20;;;;;;;4.15;1.65;;;;;;;6.24;67.20;101432.00;5011090;28;20052;-74
2021/04/17 07:37:49;;;;;;;7.05;1.85;;;;;;;6.27;66.77;101427.53;5004158;28;20057;-74
2021/04/17 07:40:17;;;;;;;6.85;1.85;;;;;;;6.28;67.54;101437.09;5008216;28;20045;-73
2021/04/17 07:42:46;;;;;;;6.70;2.00;;;;;;;6.49;66.84;101433.00;5004659;28;20085;-74
2021/04/17 07:45:22;;;;;;;6.78;2.33;;;;;;;6.59;66.37;101437.06;4994252;28;20056;-76
2021/04/17 07:47:50;;;;;;;7.32;2.08;;;;;;;6.96;65.18;101438.56;5001242;28;20037;-74
2021/04/17 07:50:18;;;;;;;11.18;1.98;;;;;;;7.18;64.43;101444.00;5003650;28;20053;-74
2021/04/17 07:52:46;;;;;;;11.38;1.63;;;;;;;7.15;64.70;101443.22;5002055;28;20042;-73
2021/04/17 07:55:17;;;;;;;12.60;1.92;;;;;;;7.36;66.59;101438.16;5002682;28;20045;-76
2021/04/17 07:57:53;;;;;;;5.43;2.05;;;;;;;7.12;64.91;101446.81;5008328;28;20057;-74
2021/04/17 08:00:22;;;;;;;12.48;2.25;;;;;;;7.01;65.65;101449.75;5010098;28;20050;-74
2021/04/17 08:02:52;;;;;;;5.80;1.75;;;;;;;7.37;64.24;101449.50;4993866;28;20248;-76
2021/04/17 08:05:21;;;;;;;10.32;1.80;;;;;;;6.93;66.14;101454.34;5015657;28;20112;-75
2021/04/17 08:07:48;;;;;;;7.13;2.03;;;;;;;7.75;63.38;101445.63;5002194;28;20118;-75
2021/04/17 08:10:16;;;;;;;8.05;2.15;;;;;;;8.49;60.99;101443.88;4998228;28;20141;-76
2021/04/17 08:12:44;;;;;;;8.65;2.30;;;;;;;7.98;62.97;101439.56;4998704;28;20132;-76
2021/04/17 08:15:13;;;;;;;8.32;2.40;;;;;;;8.10;62.63;101441.78;5000341;28;20108;-75
2021/04/17 08:17:41;;;;;;;5.53;1.75;;;;;;;8.75;59.52;101442.03;4997050;28;20092;-73
2021/04/17 08:20:11;;;;;;;7.63;1.98;;;;;;;9.19;58.40;101445.56;5007436;28;20084;-74
2021/04/17 08:22:39;;;;;;;7.35;2.63;;;;;;;9.49;57.09;101442.59;4995613;28;20060;-74
2021/04/17 08:25:06;;;;;;;8.68;2.75;;;;;;;9.48;57.45;101448.78;4989491;28;20122;-75
2021/04/17 08:27:33;;;;;;;5.97;1.85;;;;;;;9.35;57.29;101451.03;4984978;28;20072;-73
2021/04/17 08:30:09;;;;;;;9.63;2.60;;;;;;;9.49;57.08;101442.59;5000613;28;20384;-75
2021/04/17 08:33:13;;;;;;;5.72;1.95;;;;;;;10.07;56.09;101437.47;4999373;28;20499;-75
2021/04/17 08:35:40;;;;;;;10.30;2.40;;;;;;;9.82;56.39;101432.44;5022698;28;20051;-73
2021/04/17 08:38:09;;;;;;;7.05;2.35;;;;;;;10.43;54.77;101436.81;4983839;28;20120;-75
2021/04/17 08:40:36;;;;;;;6.10;2.30;;;;;;;10.67;53.92;101440.09;5008569;28;20133;-74
2021/04/17 08:43:04;;;;;;;8.88;2.05;;;;;;;10.32;54.65;101440.78;4985621;28;20554;-74
2021/04/17 08:45:32;;;;;;;6.75;2.10;;;;;;;10.11;55.23;101442.53;5003468;28;20224;-76
2021/04/17 08:48:00;;;;;;;8.45;2.40;;;;;;;9.99;55.73;101442.22;4987803;28;20128;-76
2021/04/17 08:50:37;;;;;;;6.55;2.90;;;;;;;10.26;54.94;101440.19;5006200;28;20056;-74
2021/04/17 08:53:10;;;;;;;14.18;2.92;;;;;;;10.29;54.54;101442.69;4992380;28;20699;-75
2021/04/17 08:55:36;;;;;;;10.23;3.10;;;;;;;10.72;54.92;101446.03;5000591;28;20097;-73
2021/04/17 08:58:21;;;;;;;8.18;2.40;;;;;;;10.48;54.90;101442.72;5006794;28;20487;-75
2021/04/17 09:00:50;;;;;;;8.05;2.40;;;;;;;10.59;55.10;101443.94;5000503;28;20052;-73
2021/04/17 09:03:39;;;;;;;10.65;2.15;;;;;;;10.59;54.50;101443.09;5007814;28;20064;-73
2021/04/17 09:06:27;;;;;;;7.80;2.58;;;;;;;10.98;53.65;101442.97;4983076;28;20144;-75
2021/04/17 09:09:16;;;;;;;10.48;2.53;;;;;;;10.81;53.97;101443.81;5008099;28;20479;-75
2021/04/17 09:11:47;;;;;;;6.32;2.53;;;;;;;11.34;52.52;101443.00;4997334;28;20141;-74
2021/04/17 09:14:26;;;;;;;6.07;3.05;;;;;;;10.99;53.16;101450.00;4990724;28;20405;-74
2021/04/17 09:17:25;;;;;;;8.10;2.20;;;;;;;10.27;55.48;101447.19;5003843;28;20186;-73
2021/04/17 09:19:52;;;;;;;9.80;2.67;;;;;;;11.15;53.64;101443.03;5005494;28;20077;-72
2021/04/17 09:22:31;;;;;;;9.07;2.25;;;;;;;12.08;51.01;101437.53;5004381;28;20100;-75
2021/04/17 09:24:59;;;;;;;8.73;2.63;;;;;;;11.99;50.96;101431.88;5018434;28;20046;-75
2021/04/17 09:27:31;;;;;;;13.40;3.40;;;;;;;11.77;51.25;101432.09;5010389;28;20061;-75
2021/04/17 09:30:11;;;;;;;9.35;2.92;;;;;;;11.04;53.16;101444.50;4991591;28;20049;-76
2021/04/17 09:32:41;;;;;;;12.77;3.38;;;;;;;11.41;52.64;101439.13;5021074;28;20050;-74
2021/04/17 09:35:16;;;;;;;7.78;2.40;;;;;;;11.58;52.18;101440.09;5017491;28;20085;-75
2021/04/17 09:37:44;;;;;;;8.35;2.40;;;;;;;11.73;51.89;101430.53;5012252;28;20048;-74
2021/04/17 09:40:12;;;;;;;7.30;2.67;;;;;;;12.30;50.22;101431.13;5006447;28;20045;-75
2021/04/17 09:42:40;;;;;;;8.90;2.70;;;;;;;12.31;49.91;101427.53;4997043;28;20772;-75
2021/04/17 09:45:11;;;;;;;8.77;3.10;;;;;;;12.13;50.88;101432.88;5000664;28;20129;-75
2021/04/17 09:47:55;;;;;;;13.77;3.25;;;;;;;13.07;48.50;101425.97;5004890;28;20586;-75
2021/04/17 09:50:24;;;;;;;10.88;3.53;;;;;;;13.62;47.00;101420.16;5002714;28;20106;-74
2021/04/17 09:52:52;;;;;;;5.95;2.72;;;;;;;13.40;47.12;101419.72;5014107;28;20061;-74
2021/04/17 09:55:19;;;;;;;10.23;2.88;;;;;;;12.31;50.18;101416.97;5014899;28;20129;-75
2021/04/17 09:57:47;;;;;;;13.63;2.83;;;;;;;12.44;49.30;101418.03;5005553;28;20229;-75
2021/04/17 10:00:14;;;;;;;10.63;3.65;;;;;;;12.42;49.91;101420.72;5000467;28;20060;-73
2021/04/17 10:02:43;;;;;;;9.10;3.08;;;;;;;11.06;53.88;101426.81;5010037;28;20065;-74
2021/04/17 10:05:12;;;;;;;13.07;3.22;;;;;;;11.54;53.06;101414.81;4999982;28;20489;-75
2021/04/17 10:07:51;;;;;;;8.65;3.03;;;;;;;12.11;51.21;101411.00;5004071;28;20058;-74
2021/04/17 10:10:17;;;;;;;8.15;2.97;;;;;;;12.47;50.42;101414.34;5003277;28;20392;-74
2021/04/17 10:12:54;;;;;;;14.23;3.90;;;;;;;12.54;50.72;101406.03;5010060;28;20054;-74
2021/04/17 10:15:31;;;;;;;8.73;3.00;;;;;;;12.27;51.37;101402.25;5016891;28;20089;-73
2021/04/17 10:18:00;;;;;;;12.52;4.38;;;;;;;11.51;53.53;101405.25;4993747;28;20046;-73
2021/04/17 10:20:28;;;;;;;10.10;3.85;;;;;;;12.02;52.10;101403.56;5005324;28;20120;-75
2021/04/17 10:22:56;;;;;;;10.40;3.63;;;;;;;12.13;51.43;101401.19;5000014;28;20046;-75
2021/04/17 10:25:38;;;;;;;10.55;3.35;;;;;;;13.59;48.18;101399.19;4987859;28;20419;-74
2021/04/17 10:28:20;;;;;;;12.00;3.42;;;;;;;13.75;47.08;101391.19;4973636;28;20233;-75
2021/04/17 10:30:54;;;;;;;11.93;3.65;;;;;;;13.31;48.28;101386.72;4988890;28;20066;-75
2021/04/17 10:33:26;;;;;;;11.30;3.55;;;;;;;14.13;46.87;101388.00;5010856;28;20046;-75
2021/04/17 10:35:55;;;;;;;8.70;3.58;;;;;;;13.47;47.56;101388.50;4981284;28;20559;-73
2021/04/17 10:38:33;;;;;;;13.90;3.83;;;;;;;12.73;49.72;101383.88;5007435;28;20054;-73
2021/04/17 10:41:02;;;;;;;13.45;3.50;;;;;;;13.43;48.08;101382.53;5003320;28;20050;-73
2021/04/17 10:43:29;;;;;;;5.43;3.40;;;;;;;13.88;47.13;101381.56;5008236;28;20073;-74
2021/04/17 10:45:58;;;;;;;11.25;3.30;;;;;;;13.71;47.62;101373.78;5000667;28;20050;-73
2021/04/17 10:48:26;;;;;;;12.13;4.10;;;;;;;13.47;47.97;101376.13;5018277;28;20065;-74
2021/04/17 10:50:59;;;;;;;11.32;3.78;;;;;;;14.12;46.26;101384.50;5015439;28;20052;-72
2021/04/17 10:53:32;;;;;;;12.00;3.78;;;;;;;13.62;47.50;101375.19;5006734;28;20601;-74
2021/04/17 10:56:02;;;;;;;9.27;3.08;;;;;;;13.38;48.21;101376.66;5018150;28;20073;-73
2021/04/17 10:58:33;;;;;;;10.40;3.63;;;;;;;13.44;48.73;101371.00;5004806;28;20520;-74
2021/04/17 11:01:08;;;;;;;8.88;3.42;;;;;;;13.54;48.02;101363.38;4994901;28;20096;-74
2021/04/17 11:03:43;;;;;;;14.90;3.83;;;;;;;13.37;48.83;101359.06;5010177;28;20401;-74
2021/04/17 11:06:27;;;;;;;8.82;2.83;;;;;;;13.36;48.93;101360.00;5004981;28;20051;-73
2021/04/17 11:09:15;;;;;;;8.27;4.10;;;;;;;13.85;47.77;101355.28;4992475;28;20571;-73
2021/04/17 11:12:03;;;;;;;12.60;3.17;;;;;;;13.99;47.30;101354.44;5009248;28;20041;-73
2021/04/17 11:14:30;;;;;;;12.18;4.53;;;;;;;14.11;47.20;101361.63;5004796;28;20089;-75
2021/04/17 11:16:57;;;;;;;15.00;3.90;;;;;;;13.27;49.40;101360.56;5001745;28;20065;-74
2021/04/17 11:19:30;;;;;;;12.38;4.72;;;;;;;13.59;48.78;101348.91;4994855;28;20050;-74
2021/04/17 11:22:19;;;;;;;11.60;3.40;;;;;;;13.98;47.84;101357.19;5008573;28;20060;-75
2021/04/17 11:25:06;;;;;;;10.85;3.60;;;;;;;13.80;48.11;101356.50;4984865;28;20141;-73
2021/04/17 11:27:34;;;;;;;9.88;4.20;;;;;;;13.84;48.42;101350.94;4980299;28;20088;-74
2021/04/17 11:30:07;;;;;;;10.50;3.40;;;;;;;13.70;49.43;101350.09;5000445;28;20428;-75
2021/04/17 11:32:34;;;;;;;8.75;3.83;;;;;;;14.36;47.79;101347.72;5000917;28;20557;-73
2021/04/17 11:35:06;;;;;;;11.63;4.18;;;;;;;14.56;47.16;101350.91;4998742;28;20147;-74
2021/04/17 11:37:33;;;;;;;8.10;3.88;;;;;;;13.75;49.64;101346.19;5000624;28;20902;-73
2021/04/17 11:40:00;;;;;;;12.25;4.03;;;;;;;14.04;48.35;101347.06;5002792;28;20041;-74
2021/04/17 11:42:27;;;;;;;9.93;3.75;;;;;;;14.31;49.16;101339.19;5003929;28;20405;-73
2021/04/17 11:44:56;;;;;;;13.32;4.03;;;;;;;13.91;49.08;101331.09;5002135;28;20596;-73
2021/04/17 11:47:23;;;;;;;14.55;4.90;;;;;;;14.23;49.20;101346.78;5007323;28;20133;-74
2021/04/17 11:49:51;;;;;;;13.90;4.63;;;;;;;14.14;48.67;101342.06;4999826;28;20034;-73
2021/04/17 11:52:17;;;;;;;12.43;5.13;;;;;;;13.72;49.94;101338.44;4981970;28;20054;-74
2021/04/17 11:54:44;;;;;;;11.43;4.30;;;;;;;14.45;48.25;101338.31;4969740;28;20544;-74
2021/04/17 11:57:11;;;;;;;12.88;4.13;;;;;;;14.55;47.72;101339.47;5023188;28;20074;-72
2021/04/17 11:59:40;;;;;;;9.40;4.35;;;;;;;14.53;47.19;101338.69;4998552;28;20038;-74
2021/04/17 12:02:07;;;;;;;12.15;4.53;;;;;;;13.89;48.80;101337.41;4992340;28;20157;-73
2021/04/17 12:04:33;;;;;;;13.68;5.10;;;;;;;14.08;48.32;101343.28;4995644;28;20057;-73
2021/04/17 12:07:00;;;;;;;10.10;4.93;;;;;;;14.29;47.81;101340.25;4988753;28;20121;-73
2021/04/17 12:09:27;;;;;;;20.73;5.43;;;;;;;14.34;48.09;101338.16;5011807;28;20132;-74
2021/04/17 12:11:54;;;;;;;11.75;5.18;;;;;;;14.51;48.19;101337.97;5009006;28;20053;-74
2021/04/17 12:14:20;;;;;;;8.98;5.13;;;;;;;14.66;47.18;101342.25;4987606;28;20093;-74
2021/04/17 12:16:47;;;;;;;10.23;6.05;;;;;;;14.02;49.71;101340.16;5001181;28;20064;-73
2021/04/17 12:19:14;;;;;;;12.98;5.70;;;;;;;14.24;48.46;101339.69;5019304;28;20102;-75
2021/04/17 12:21:41;;;;;;;10.35;5.28;;;;;;;14.61;47.36;101341.72;5015529;28;20050;-75
2021/04/17 12:24:08;;;;;;;10.25;5.15;;;;;;;14.59;47.56;101334.81;5008711;28;20046;-72
2021/04/17 12:26:35;;;;;;;9.85;5.40;;;;;;;14.15;48.28;101333.16;4969092;28;20064;-74
2021/04/17 12:29:02;;;;;;;12.73;5.93;;;;;;;14.17;48.69;101334.75;5003414;28;20046;-73
2021/04/17 12:31:28;;;;;;;12.85;5.55;;;;;;;13.92;49.50;101334.59;4998679;28;20051;-74
2021/04/17 12:33:55;;;;;;;17.25;6.32;;;;;;;14.19;48.87;101337.31;4989366;28;20142;-75
2021/04/17 12:36:22;;;;;;;9.50;5.18;;;;;;;13.87;49.54;101336.69;5013729;28;20161;-76
2021/04/17 12:38:49;;;;;;;16.63;5.57;;;;;;;13.73;49.96;101337.50;5005062;28;20141;-73
2021/04/17 12:41:16;;;;;;;14.25;5.25;;;;;;;13.86;49.43;101325.22;5006602;28;20156;-74
2021/04/17 12:43:43;;;;;;;16.27;5.13;;;;;;;13.65;49.95;101324.75;5009862;28;20531;-73
2021/04/17 12:46:10;;;;;;;11.90;5.28;;;;;;;13.36;50.56;101320.34;5019762;28;20050;-74
2021/04/17 12:48:36;;;;;;;10.00;5.47;;;;;;;13.32;51.08;101324.94;4979119;28;20144;-75
2021/04/17 12:51:04;;;;;;;16.10;4.80;;;;;;;13.27;51.04;101321.75;4998300;28;20041;-73
2021/04/17 12:53:30;;;;;;;13.18;5.10;;;;;;;13.34;50.90;101316.94;5005222;28;20137;-74
2021/04/17 12:55:58;;;;;;;13.02;5.40;;;;;;;13.55;50.31;101320.94;5002690;28;20042;-73
2021/04/17 12:58:25;;;;;;;18.50;5.28;;;;;;;13.35;51.13;101318.66;5001711;28;20057;-74